Ponteix, Canada
Current Conditions -  °F | °C
As of 9:00 AM on Tuesday 21 Oct 2014 (Local Time) from CYYN Reporting Station
Scattered Clouds Scattered Clouds  
Wind Chill: 54°   Ceiling: Unl
Heat Index: 54°   Visibility: 9mi
Dew Point: 41°   Wind: 12mph
Humidity: 62%   Direction: 180°S
Pressure: 29.61"   Gusts: NA
Location:  49.75°N, 107.48°W
Report Text: CYYN 211500Z AUTO 18010KT 9SM SCT140 12/05 A2961 RMK SLP033 DENSITY ALT 3200FT
Loading
Personal Weather Stations






























Interactive Weather Map
Tropical Storm Tracking
New forecast layout! Learn more

10-Day Weather Forecast

Advertisements
Track Severe Weather on mobile